D/T METAR WX W/DIR W/SPE G/SPE TEMP DEWP
20/06/19 16:20 EGPN 201520Z 27018KT 9999 VCSH FEW030 15/10 Q1006 VCSH W (270°) 20.7mph 15°C 10°C
20/06/19 15:50 EGPN 201450Z 27015KT 9999 VCSH FEW032 16/11 Q1006 VCSH W (270°) 17.3mph 16°C 11°C
20/06/19 15:20 EGPN 201420Z 26020KT 9999 FEW032 16/10 Q1005 W (260°) 23.0mph 16°C 10°C
20/06/19 14:50 EGPN 201350Z 27019KT 9999 FEW032 17/10 Q1005 W (270°) 21.9mph 17°C 10°C
20/06/19 14:20 EGPN 201320Z 26019KT 9999 VCSH FEW032 16/10 Q1005 VCSH W (260°) 21.9mph 16°C 10°C
20/06/19 13:50 EGPN 201250Z 26020KT 9999 VCSH FEW032 17/10 Q1005 VCSH W (260°) 23.0mph 17°C 10°C
20/06/19 13:20 EGPN 201220Z 26021KT 9999 -SHRA FEW035 17/11 Q1005 -SHRA W (260°) 24.2mph 17°C 11°C
20/06/19 12:50 EGPN 201150Z 26019KT 9999 FEW035 16/10 Q1005 W (260°) 21.9mph 16°C 10°C
20/06/19 12:20 EGPN 201120Z 26020KT 9999 FEW035 15/10 Q1005 W (260°) 23.0mph 15°C 10°C
20/06/19 11:50 EGPN 201050Z 27019KT 9999 FEW035 15/10 Q1005 W (270°) 21.9mph 15°C 10°C
20/06/19 11:20 EGPN 201020Z 27020KT 9999 FEW035 14/09 Q1005 W (270°) 23.0mph 14°C 9°C
20/06/19 10:50 EGPN 200950Z 26019KT 9999 FEW030 15/09 Q1005 W (260°) 21.9mph 15°C 9°C
20/06/19 10:20 EGPN 200920Z 26016KT 9999 FEW030 14/08 Q1005 W (260°) 18.4mph 14°C 8°C
20/06/19 09:50 EGPN 200850Z 26019KT 9999 FEW020 14/09 Q1004 W (260°) 21.9mph 14°C 9°C
20/06/19 09:20 EGPN 200820Z 27016KT 9999 FEW020 13/09 Q1004 W (270°) 18.4mph 13°C 9°C
20/06/19 08:50 EGPN 200750Z 27015KT 9999 FEW015 13/09 Q1004 W (270°) 17.3mph 13°C 9°C
20/06/19 07:50 EGPN 200650Z 27010KT 9999 FEW012 12/10 Q1004 W (270°) 11.5mph 12°C 10°C
20/06/19 06:50 EGPN 200550Z 28008KT 9999 FEW008 11/10 Q1004 W (280°) 9.2mph 11°C 10°C
20/06/19 06:20 EGPN 200520Z 27009KT 9999 FEW008 11/10 Q1004 W (270°) 10.4mph 11°C 10°C
19/06/19 20:20 EGPN 191920Z 28011KT 9999 FEW040 16/10 Q1004 W (280°) 12.7mph 16°C 10°C
19/06/19 19:50 EGPN 191850Z 28012KT 9999 FEW040 16/10 Q1004 W (280°) 13.8mph 16°C 10°C
19/06/19 19:20 EGPN 191820Z 29011KT 9999 FEW040 17/09 Q1004 WNW (290°) 12.7mph 17°C 9°C
19/06/19 18:20 EGPN 191720Z 25009KT 9999 FEW040 18/11 Q1004 WSW (250°) 10.4mph 18°C 11°C
19/06/19 17:50 EGPN 191650Z 26009KT 9999 FEW040 17/11 Q1004 W (260°) 10.4mph 17°C 11°C
19/06/19 17:20 EGPN 191620Z 25013KT 9999 FEW040 17/11 Q1005 WSW (250°) 15.0mph 17°C 11°C
19/06/19 16:20 EGPN 191520Z 26008KT 9999 FEW040 18/11 Q1005 W (260°) 9.2mph 18°C 11°C
19/06/19 15:50 EGPN 191450Z 26010KT 9999 FEW040 19/11 Q1005 W (260°) 11.5mph 19°C 11°C
19/06/19 14:50 EGPN 191350Z 27008KT 9999 FEW040 19/11 Q1005 W (270°) 9.2mph 19°C 11°C
19/06/19 14:20 EGPN 191320Z 26010KT 9999 FEW040 19/11 Q1005 W (260°) 11.5mph 19°C 11°C
19/06/19 13:50 EGPN 191250Z 27010KT 9999 FEW040 18/10 Q1005 W (270°) 11.5mph 18°C 10°C
19/06/19 13:20 EGPN 191220Z 25010KT 9999 FEW036 19/10 Q1006 WSW (250°) 11.5mph 19°C 10°C
19/06/19 12:50 EGPN 191150Z 24010KT 9999 FEW030 19/10 Q1006 WSW (240°) 11.5mph 19°C 10°C
19/06/19 12:20 EGPN 191120Z 24012KT 9999 FEW035 19/11 Q1006 WSW (240°) 13.8mph 19°C 11°C
19/06/19 11:50 EGPN 191050Z 23011KT 9999 FEW035 18/11 Q1006 SW (230°) 12.7mph 18°C 11°C
19/06/19 11:20 EGPN 191020Z 24010KT 9999 FEW032 18/12 Q1006 WSW (240°) 11.5mph 18°C 12°C
19/06/19 10:50 EGPN 190950Z VRB02KT 9999 FEW045 17/12 Q1006 N (0°) 2.3mph 17°C 12°C
19/06/19 10:20 EGPN 190920Z 00000KT 9999 FEW045 16/12 Q1006 N (0°) 16°C 12°C
19/06/19 09:50 EGPN 190850Z 00000KT 9999 FEW020 15/11 Q1006 N (0°) 15°C 11°C
19/06/19 09:20 EGPN 190820Z 27002KT 9999 FEW020 15/12 Q1006 W (270°) 2.3mph 15°C 12°C
19/06/19 08:50 EGPN 190750Z 00000KT 9999 FEW020 14/11 Q1007 N (0°) 14°C 11°C
19/06/19 08:20 EGPN 190720Z 00000KT 9999 FEW020 13/11 Q1007 N (0°) 13°C 11°C
19/06/19 07:50 EGPN 190650Z 21002KT 9999 FEW015 13/11 Q1007 SSW (210°) 2.3mph 13°C 11°C
19/06/19 07:20 EGPN 190620Z 00000KT 9999 FEW015 12/10 Q1007 N (0°) 12°C 10°C
19/06/19 06:20 EGPN 190520Z 00000KT CAVOK 12/11 Q1007 N (0°) 12°C 11°C
18/06/19 20:20 EGPN 181920Z 27008KT 9999 SCT030 16/11 Q1009 W (270°) 9.2mph 16°C 11°C
18/06/19 19:50 EGPN 181850Z 25009KT 9999 SCT030 16/12 Q1009 WSW (250°) 10.4mph 16°C 12°C
18/06/19 19:20 EGPN 181820Z 26011KT 9999 SCT030 17/12 Q1009 W (260°) 12.7mph 17°C 12°C
18/06/19 18:50 EGPN 181750Z 27010KT 9999 SCT030 16/11 Q1009 W (270°) 11.5mph 16°C 11°C